createdAt,value
2023-01-28T00:00:01.037Z,37.22
2023-01-28T00:00:32.435Z,36.99
2023-01-28T00:01:03.882Z,37.27
2023-01-28T00:01:35.293Z,37.58
2023-01-28T00:02:06.694Z,37.19
2023-01-28T00:02:38.112Z,37.08
2023-01-28T00:03:09.555Z,37.34
2023-01-28T00:03:41.062Z,37.47
2023-01-28T00:04:12.497Z,37.32
2023-01-28T00:04:43.906Z,36.89
2023-01-28T00:05:15.587Z,36.96
2023-01-28T00:05:47.248Z,37.45
2023-01-28T00:06:18.687Z,37.43
2023-01-28T00:06:50.085Z,37.55
2023-01-28T00:07:21.513Z,37.24
2023-01-28T00:07:52.930Z,37.06
2023-01-28T00:08:24.318Z,37.22
2023-01-28T00:08:55.718Z,37.05
2023-01-28T00:09:27.129Z,37.52
2023-01-28T00:09:58.536Z,37.40
2023-01-28T00:10:29.987Z,36.98
2023-01-28T00:11:01.398Z,37.10
2023-01-28T00:11:32.841Z,36.84
2023-01-28T00:12:04.258Z,37.16
2023-01-28T00:12:35.664Z,37.46
2023-01-28T00:13:07.081Z,37.00
2023-01-28T00:13:38.638Z,37.54
2023-01-28T00:14:10.051Z,37.14
2023-01-28T00:14:41.442Z,37.44
2023-01-28T00:15:13.139Z,37.42
2023-01-28T00:15:44.750Z,37.48
2023-01-28T00:16:16.223Z,37.03
2023-01-28T00:16:47.644Z,37.07
2023-01-28T00:17:19.042Z,37.33
2023-01-28T00:17:50.442Z,37.29
2023-01-28T00:18:21.840Z,37.21
2023-01-28T00:18:53.238Z,36.99
2023-01-28T00:19:24.658Z,37.02
2023-01-28T00:19:56.062Z,36.87
2023-01-28T00:20:27.478Z,37.25
2023-01-28T00:20:58.853Z,37.03
2023-01-28T00:21:30.291Z,36.97
2023-01-28T00:22:01.723Z,37.07
2023-01-28T00:22:33.138Z,37.47
2023-01-28T00:23:04.531Z,37.63
2023-01-28T00:23:35.955Z,37.38
2023-01-28T00:24:07.425Z,37.33
2023-01-28T00:24:38.844Z,36.96
2023-01-28T00:25:10.257Z,37.42
2023-01-28T00:25:41.681Z,37.39
2023-01-28T00:26:13.071Z,37.41
2023-01-28T00:26:44.461Z,37.31
2023-01-28T00:27:15.854Z,36.93
2023-01-28T00:27:47.304Z,37.42
2023-01-28T00:28:18.720Z,37.25
2023-01-28T00:28:50.117Z,37.47
2023-01-28T00:29:21.547Z,37.29
2023-01-28T00:29:52.947Z,37.26
2023-01-28T00:30:24.367Z,37.53
2023-01-28T00:30:55.773Z,37.48
2023-01-28T00:31:27.261Z,37.29
2023-01-28T00:31:58.864Z,37.68
2023-01-28T00:32:30.286Z,37.05
2023-01-28T00:33:01.697Z,37.58
2023-01-28T00:33:33.118Z,37.15
2023-01-28T00:34:04.512Z,37.17
2023-01-28T00:34:35.937Z,37.19
2023-01-28T00:35:07.359Z,37.53
2023-01-28T00:35:38.765Z,37.25
2023-01-28T00:36:10.166Z,37.28
2023-01-28T00:36:41.566Z,36.93
2023-01-28T00:37:12.991Z,37.08
2023-01-28T00:37:44.433Z,37.03
2023-01-28T00:38:15.845Z,37.28
2023-01-28T00:38:47.253Z,37.23
2023-01-28T00:39:18.669Z,37.38
2023-01-28T00:39:50.114Z,37.16
2023-01-28T00:40:21.521Z,37.40
2023-01-28T00:40:52.935Z,37.04
2023-01-28T00:41:24.338Z,37.26
2023-01-28T00:41:55.764Z,37.45
2023-01-28T00:42:27.230Z,36.99
2023-01-28T00:42:58.642Z,37.29
2023-01-28T00:43:30.033Z,37.48
2023-01-28T00:44:01.426Z,37.50
2023-01-28T00:44:32.837Z,37.20
2023-01-28T00:45:04.256Z,37.43
2023-01-28T00:45:35.673Z,37.29
2023-01-28T00:46:07.194Z,36.90
2023-01-28T00:46:38.704Z,36.98
2023-01-28T00:47:10.129Z,37.02
2023-01-28T00:47:41.585Z,37.01
2023-01-28T00:48:13.010Z,37.46
2023-01-28T00:48:44.432Z,37.21
2023-01-28T00:49:15.861Z,37.17
2023-01-28T00:49:47.254Z,37.46
2023-01-28T00:50:18.681Z,36.93
2023-01-28T00:50:50.090Z,37.62
2023-01-28T00:51:21.487Z,36.77
2023-01-28T00:51:52.887Z,37.17
2023-01-28T00:52:24.309Z,36.70
2023-01-28T00:52:55.708Z,37.52
2023-01-28T00:53:27.108Z,37.52
2023-01-28T00:53:58.541Z,37.20
2023-01-28T00:54:29.947Z,37.33
2023-01-28T00:55:01.541Z,37.45
2023-01-28T00:55:32.953Z,37.40
2023-01-28T00:56:04.369Z,37.03
2023-01-28T00:56:35.763Z,37.02
2023-01-28T00:57:07.185Z,37.21
2023-01-28T00:57:38.588Z,37.37
2023-01-28T00:58:09.980Z,37.30
2023-01-28T00:58:41.413Z,37.48
2023-01-28T00:59:12.863Z,37.27
2023-01-28T00:59:44.268Z,37.48
2023-01-28T01:00:15.687Z,36.95
2023-01-28T01:00:47.091Z,36.98
2023-01-28T01:01:18.594Z,37.27
2023-01-28T01:01:50.096Z,36.90
2023-01-28T01:02:21.605Z,37.46
2023-01-28T01:02:53.097Z,37.35
2023-01-28T01:03:24.497Z,37.25
2023-01-28T01:03:55.894Z,37.47
2023-01-28T01:04:27.335Z,37.13
2023-01-28T01:04:58.738Z,37.32
2023-01-28T01:05:30.166Z,37.29
2023-01-28T01:06:01.590Z,37.03
2023-01-28T01:06:33.020Z,37.30
2023-01-28T01:07:04.423Z,37.09
2023-01-28T01:07:35.827Z,37.26
2023-01-28T01:08:07.246Z,37.11
2023-01-28T01:08:38.640Z,37.60
2023-01-28T01:09:10.032Z,37.73
2023-01-28T01:09:41.452Z,37.32
2023-01-28T01:10:12.855Z,37.27
2023-01-28T01:10:44.305Z,37.48
2023-01-28T01:11:15.735Z,37.50
2023-01-28T01:11:47.129Z,37.35
2023-01-28T01:12:18.549Z,37.43
2023-01-28T01:12:49.979Z,37.26
2023-01-28T01:13:21.394Z,37.41
2023-01-28T01:13:52.803Z,37.18
2023-01-28T01:14:24.212Z,37.47
2023-01-28T01:14:55.652Z,37.39
2023-01-28T01:15:27.105Z,36.97
2023-01-28T01:15:58.578Z,37.41
2023-01-28T01:16:30.036Z,37.69
2023-01-28T01:17:01.432Z,37.59
2023-01-28T01:17:32.841Z,37.27
2023-01-28T01:18:04.233Z,37.05
2023-01-28T01:18:35.655Z,37.63
2023-01-28T01:19:07.047Z,37.39
2023-01-28T01:19:38.502Z,37.41
2023-01-28T01:20:09.997Z,37.31
2023-01-28T01:20:41.405Z,37.01
2023-01-28T01:21:12.857Z,37.38
2023-01-28T01:21:44.261Z,37.05
2023-01-28T01:22:15.669Z,37.30
2023-01-28T01:22:47.078Z,37.29
2023-01-28T01:23:18.470Z,37.53
2023-01-28T01:23:49.894Z,37.21
2023-01-28T01:24:21.397Z,37.16
2023-01-28T01:24:52.945Z,37.32
2023-01-28T01:25:24.369Z,37.22
2023-01-28T01:25:55.858Z,37.53
2023-01-28T01:26:27.340Z,37.40
2023-01-28T01:26:58.790Z,37.27
2023-01-28T01:27:30.183Z,37.12
2023-01-28T01:28:01.593Z,37.38
2023-01-28T01:28:33.007Z,37.11
2023-01-28T01:29:04.404Z,37.62
2023-01-28T01:29:35.838Z,37.27
2023-01-28T01:30:07.248Z,37.66
2023-01-28T01:30:38.766Z,37.57
2023-01-28T01:31:10.240Z,37.52
2023-01-28T01:31:41.712Z,37.66
2023-01-28T01:32:13.267Z,37.64
2023-01-28T01:32:44.694Z,37.52
2023-01-28T01:33:16.090Z,37.18
2023-01-28T01:33:47.492Z,37.58
2023-01-28T01:34:18.891Z,37.68
2023-01-28T01:34:50.297Z,37.20
2023-01-28T01:35:21.691Z,37.35
2023-01-28T01:35:53.097Z,37.62
2023-01-28T01:36:24.504Z,37.37
2023-01-28T01:36:55.931Z,37.14
2023-01-28T01:37:27.338Z,37.70
2023-01-28T01:37:58.752Z,37.14
2023-01-28T01:38:30.141Z,37.54
2023-01-28T01:39:01.542Z,37.47
2023-01-28T01:39:32.959Z,37.13
2023-01-28T01:40:04.380Z,37.61
2023-01-28T01:40:35.800Z,37.47
2023-01-28T01:41:07.224Z,37.16
2023-01-28T01:41:38.646Z,37.61
2023-01-28T01:42:10.087Z,37.27
2023-01-28T01:42:41.484Z,37.40
2023-01-28T01:43:12.914Z,37.54
2023-01-28T01:43:44.306Z,37.77
2023-01-28T01:44:15.723Z,37.65
2023-01-28T01:44:47.141Z,37.27
2023-01-28T01:45:18.557Z,37.28
2023-01-28T01:45:50.024Z,37.34
2023-01-28T01:46:21.540Z,37.41
2023-01-28T01:46:52.968Z,37.37
2023-01-28T01:47:24.381Z,37.29
2023-01-28T01:47:55.802Z,37.57
2023-01-28T01:48:27.199Z,37.24
2023-01-28T01:48:58.637Z,37.80
2023-01-28T01:49:30.034Z,37.55
2023-01-28T01:50:01.465Z,37.72
2023-01-28T01:50:32.861Z,37.77
2023-01-28T01:51:04.259Z,37.76
2023-01-28T01:51:35.658Z,37.51
2023-01-28T01:52:07.054Z,37.31
2023-01-28T01:52:38.450Z,37.33
2023-01-28T01:53:09.850Z,37.78
2023-01-28T01:53:41.263Z,37.57
2023-01-28T01:54:12.710Z,37.74
2023-01-28T01:54:44.131Z,37.46
2023-01-28T01:55:15.934Z,37.74
2023-01-28T01:55:47.561Z,37.58
2023-01-28T01:56:18.956Z,38.01
2023-01-28T01:56:50.350Z,37.82
2023-01-28T01:57:21.771Z,37.74
2023-01-28T01:57:53.192Z,37.64
2023-01-28T01:58:24.585Z,38.04
2023-01-28T01:58:55.978Z,37.63
2023-01-28T01:59:27.407Z,37.81
2023-01-28T01:59:58.826Z,37.98
2023-01-28T02:00:30.253Z,37.34
2023-01-28T02:01:01.647Z,37.72
2023-01-28T02:01:33.039Z,37.87
2023-01-28T02:02:04.507Z,38.04
2023-01-28T02:02:35.939Z,37.83
2023-01-28T02:03:07.387Z,37.44
2023-01-28T02:03:38.876Z,37.31
2023-01-28T02:04:10.320Z,37.25
2023-01-28T02:04:41.766Z,37.72
2023-01-28T02:05:13.673Z,37.71
2023-01-28T02:05:45.310Z,37.49
2023-01-28T02:06:16.735Z,37.89
2023-01-28T02:06:48.152Z,37.59
2023-01-28T02:07:19.634Z,37.95
2023-01-28T02:07:51.065Z,37.64
2023-01-28T02:08:22.512Z,37.95
2023-01-28T02:08:53.937Z,37.79
2023-01-28T02:09:25.332Z,37.83
2023-01-28T02:09:56.750Z,37.69
2023-01-28T02:10:28.159Z,37.65
2023-01-28T02:10:59.569Z,37.38
2023-01-28T02:11:30.962Z,37.61
2023-01-28T02:12:02.350Z,37.48
2023-01-28T02:12:33.745Z,37.74
2023-01-28T02:13:05.147Z,37.57
2023-01-28T02:13:36.566Z,38.14
2023-01-28T02:14:07.989Z,38.05
2023-01-28T02:14:39.415Z,37.43
2023-01-28T02:15:10.833Z,38.12
2023-01-28T02:15:42.230Z,37.91
2023-01-28T02:16:13.658Z,37.69
2023-01-28T02:16:45.145Z,37.57
2023-01-28T02:17:16.609Z,37.75
2023-01-28T02:17:48.008Z,37.65
2023-01-28T02:18:19.405Z,37.58
2023-01-28T02:18:50.807Z,38.15
2023-01-28T02:19:22.235Z,37.53
2023-01-28T02:19:53.689Z,37.87
2023-01-28T02:20:25.089Z,37.90
2023-01-28T02:20:56.511Z,38.09
2023-01-28T02:21:27.917Z,37.74
2023-01-28T02:21:59.352Z,37.84
2023-01-28T02:22:30.751Z,37.87
2023-01-28T02:23:02.171Z,37.48
2023-01-28T02:23:33.600Z,37.42
2023-01-28T02:24:05.010Z,37.85
2023-01-28T02:24:36.615Z,38.02
2023-01-28T02:25:08.044Z,38.10
2023-01-28T02:25:39.438Z,37.54
2023-01-28T02:26:10.856Z,37.94
2023-01-28T02:26:42.253Z,38.17
2023-01-28T02:27:13.702Z,37.67
2023-01-28T02:27:45.122Z,38.03
2023-01-28T02:28:16.543Z,37.69
2023-01-28T02:28:47.947Z,37.61
2023-01-28T02:29:19.342Z,37.80
2023-01-28T02:29:50.746Z,38.14
2023-01-28T02:30:22.181Z,37.82
2023-01-28T02:30:53.725Z,37.60
2023-01-28T02:31:25.262Z,37.46
2023-01-28T02:31:56.825Z,37.99
2023-01-28T02:32:28.327Z,37.66
2023-01-28T02:32:59.731Z,38.17
2023-01-28T02:33:31.139Z,38.14
2023-01-28T02:34:02.542Z,38.25
2023-01-28T02:34:33.962Z,37.92
2023-01-28T02:35:05.357Z,37.57
2023-01-28T02:35:36.769Z,38.16
2023-01-28T02:36:08.211Z,37.92
2023-01-28T02:36:39.601Z,38.09
2023-01-28T02:37:11.019Z,37.85
2023-01-28T02:37:42.432Z,37.94
2023-01-28T02:38:13.850Z,37.58
2023-01-28T02:38:45.270Z,37.97
2023-01-28T02:39:16.686Z,37.83
2023-01-28T02:39:48.114Z,38.17
2023-01-28T02:40:19.505Z,38.09
2023-01-28T02:40:50.917Z,38.16
2023-01-28T02:41:22.367Z,37.57
2023-01-28T02:41:53.762Z,38.04
2023-01-28T02:42:25.211Z,37.66
2023-01-28T02:42:56.617Z,37.69
2023-01-28T02:43:28.005Z,38.11
2023-01-28T02:43:59.392Z,37.93
2023-01-28T02:44:30.805Z,37.91
2023-01-28T02:45:02.226Z,37.88
2023-01-28T02:45:33.661Z,37.61
2023-01-28T02:46:05.106Z,37.91
2023-01-28T02:46:36.547Z,38.32
2023-01-28T02:47:07.957Z,37.75
2023-01-28T02:47:39.390Z,38.19
2023-01-28T02:48:10.813Z,37.77
2023-01-28T02:48:42.211Z,38.11
2023-01-28T02:49:13.629Z,37.96
2023-01-28T02:49:45.060Z,37.88
2023-01-28T02:50:16.454Z,37.71
2023-01-28T02:50:47.859Z,37.80
2023-01-28T02:51:19.271Z,37.91
2023-01-28T02:51:50.720Z,38.00
2023-01-28T02:52:22.137Z,37.91
2023-01-28T02:52:53.553Z,37.79
2023-01-28T02:53:24.953Z,38.27
2023-01-28T02:53:56.351Z,37.63
2023-01-28T02:54:27.778Z,37.66
2023-01-28T02:54:59.188Z,37.68
2023-01-28T02:55:30.601Z,37.79
2023-01-28T02:56:02.021Z,38.01
2023-01-28T02:56:33.434Z,37.89
2023-01-28T02:57:04.862Z,37.79
2023-01-28T02:57:36.277Z,38.02
2023-01-28T02:58:07.725Z,37.67
2023-01-28T02:58:39.117Z,38.16
2023-01-28T02:59:10.505Z,38.22
2023-01-28T02:59:41.917Z,37.53
2023-01-28T03:00:13.321Z,38.02
2023-01-28T03:00:44.734Z,37.90
2023-01-28T03:01:16.173Z,37.93
2023-01-28T03:01:47.605Z,38.03
2023-01-28T03:02:19.047Z,38.05
2023-01-28T03:02:50.564Z,37.94
2023-01-28T03:03:22.017Z,38.10
2023-01-28T03:03:53.443Z,38.10
2023-01-28T03:04:24.841Z,38.11
2023-01-28T03:04:56.247Z,38.36
2023-01-28T03:05:27.673Z,37.84
2023-01-28T03:05:59.096Z,38.07
2023-01-28T03:06:30.482Z,38.06
2023-01-28T03:07:01.909Z,38.17
2023-01-28T03:07:33.317Z,37.70
2023-01-28T03:08:04.746Z,37.89
2023-01-28T03:08:36.137Z,37.78
2023-01-28T03:09:07.528Z,37.97
2023-01-28T03:09:38.923Z,38.22
2023-01-28T03:10:10.350Z,38.27
2023-01-28T03:10:41.749Z,38.04
2023-01-28T03:11:13.142Z,38.21
2023-01-28T03:11:44.557Z,37.81
2023-01-28T03:12:15.958Z,38.05
2023-01-28T03:12:47.362Z,38.16
2023-01-28T03:13:18.821Z,38.16
2023-01-28T03:13:50.227Z,38.23
2023-01-28T03:14:21.628Z,37.83
2023-01-28T03:14:53.042Z,38.12
2023-01-28T03:15:24.428Z,37.95
2023-01-28T03:15:55.851Z,37.88
2023-01-28T03:16:27.278Z,37.66
2023-01-28T03:16:58.671Z,38.28
2023-01-28T03:17:30.103Z,37.99
2023-01-28T03:18:01.516Z,38.21
2023-01-28T03:18:33.038Z,38.16
2023-01-28T03:19:04.467Z,37.95
2023-01-28T03:19:35.894Z,37.82
2023-01-28T03:20:07.312Z,38.05
2023-01-28T03:20:38.739Z,37.62
2023-01-28T03:21:10.139Z,38.18
2023-01-28T03:21:41.542Z,38.11
2023-01-28T03:22:12.941Z,38.13
2023-01-28T03:22:44.386Z,38.11
2023-01-28T03:23:15.818Z,37.92
2023-01-28T03:23:47.230Z,37.83
2023-01-28T03:24:18.690Z,38.12
2023-01-28T03:24:50.131Z,38.31
2023-01-28T03:25:21.543Z,37.85
2023-01-28T03:25:52.953Z,37.69
2023-01-28T03:26:24.356Z,37.96
2023-01-28T03:26:55.768Z,37.73
2023-01-28T03:27:27.159Z,38.00
2023-01-28T03:27:58.558Z,38.12
2023-01-28T03:28:29.952Z,38.10
2023-01-28T03:29:01.375Z,37.96
2023-01-28T03:29:32.811Z,37.65
2023-01-28T03:30:04.207Z,38.21
2023-01-28T03:30:35.610Z,38.00
2023-01-28T03:31:07.066Z,38.45
2023-01-28T03:31:38.551Z,38.03
2023-01-28T03:32:09.967Z,37.74
2023-01-28T03:32:41.375Z,38.36
2023-01-28T03:33:12.773Z,37.72
2023-01-28T03:33:44.170Z,38.22
2023-01-28T03:34:15.587Z,37.97
2023-01-28T03:34:47.060Z,37.90
2023-01-28T03:35:18.463Z,38.13
2023-01-28T03:35:49.864Z,38.28
2023-01-28T03:36:21.262Z,37.89
2023-01-28T03:36:52.667Z,37.70
2023-01-28T03:37:24.082Z,37.87
2023-01-28T03:37:55.496Z,37.87
2023-01-28T03:38:26.911Z,38.05
2023-01-28T03:38:58.301Z,38.11
2023-01-28T03:39:29.709Z,37.85
2023-01-28T03:40:01.163Z,38.08
2023-01-28T03:40:32.560Z,38.12
2023-01-28T03:41:04.010Z,37.75
2023-01-28T03:41:35.402Z,37.69
2023-01-28T03:42:06.796Z,38.10
2023-01-28T03:42:38.205Z,37.96
2023-01-28T03:43:09.615Z,38.27
2023-01-28T03:43:41.030Z,38.23
2023-01-28T03:44:12.445Z,38.26
2023-01-28T03:44:43.849Z,37.85
2023-01-28T03:45:15.688Z,37.68
2023-01-28T03:45:47.248Z,38.19
2023-01-28T03:46:18.715Z,37.58
2023-01-28T03:46:50.164Z,37.71
2023-01-28T03:47:21.581Z,37.70
2023-01-28T03:47:52.988Z,37.90
2023-01-28T03:48:24.403Z,37.96
2023-01-28T03:48:55.815Z,37.80
2023-01-28T03:49:27.211Z,37.75
2023-01-28T03:49:58.610Z,37.96
2023-01-28T03:50:30.050Z,37.62
2023-01-28T03:51:01.453Z,38.00
2023-01-28T03:51:32.881Z,38.01
2023-01-28T03:52:04.296Z,37.72
2023-01-28T03:52:35.713Z,38.09
2023-01-28T03:53:07.107Z,37.89
2023-01-28T03:53:38.533Z,37.95
2023-01-28T03:54:09.934Z,38.08
2023-01-28T03:54:41.376Z,37.67
2023-01-28T03:55:13.120Z,37.50
2023-01-28T03:55:44.833Z,37.79
2023-01-28T03:56:16.233Z,37.85
2023-01-28T03:56:47.675Z,37.91
2023-01-28T03:57:19.087Z,38.29
2023-01-28T03:57:50.513Z,38.19
2023-01-28T03:58:21.907Z,38.25
2023-01-28T03:58:53.316Z,38.17
2023-01-28T03:59:24.741Z,38.01
2023-01-28T03:59:56.148Z,38.15
2023-01-28T04:00:27.696Z,37.63
2023-01-28T04:00:59.192Z,37.97
2023-01-28T04:01:30.689Z,38.18
2023-01-28T04:02:02.156Z,38.39
2023-01-28T04:02:33.611Z,37.92
2023-01-28T04:03:05.058Z,37.99
2023-01-28T04:03:36.508Z,37.73
2023-01-28T04:04:07.935Z,38.34
2023-01-28T04:04:39.347Z,37.78
2023-01-28T04:05:10.758Z,38.12
2023-01-28T04:05:42.152Z,38.00
2023-01-28T04:06:13.577Z,38.00
2023-01-28T04:06:44.969Z,38.29
2023-01-28T04:07:16.377Z,38.04
2023-01-28T04:07:47.783Z,37.80
2023-01-28T04:08:19.209Z,37.85
2023-01-28T04:08:50.624Z,38.05
2023-01-28T04:09:22.045Z,37.88
2023-01-28T04:09:53.443Z,37.92
2023-01-28T04:10:24.882Z,38.08
2023-01-28T04:10:56.282Z,38.37
2023-01-28T04:11:27.724Z,37.78
2023-01-28T04:11:59.181Z,38.04
2023-01-28T04:12:30.598Z,38.33
2023-01-28T04:13:02.010Z,37.81
2023-01-28T04:13:33.407Z,37.74
2023-01-28T04:14:04.815Z,37.90
2023-01-28T04:14:36.235Z,38.09
2023-01-28T04:15:07.665Z,38.04
2023-01-28T04:15:39.079Z,37.76
2023-01-28T04:16:10.542Z,38.00
2023-01-28T04:16:42.002Z,38.05
2023-01-28T04:17:13.426Z,38.30
2023-01-28T04:17:44.875Z,37.95
2023-01-28T04:18:16.293Z,37.96
2023-01-28T04:18:47.688Z,37.95
2023-01-28T04:19:19.107Z,37.96
2023-01-28T04:19:50.516Z,37.83
2023-01-28T04:20:21.999Z,37.75
2023-01-28T04:20:53.393Z,37.82
2023-01-28T04:21:24.800Z,38.06
2023-01-28T04:21:56.234Z,37.77
2023-01-28T04:22:27.639Z,37.74
2023-01-28T04:22:59.062Z,37.95
2023-01-28T04:23:30.475Z,37.80
2023-01-28T04:24:01.920Z,37.80
2023-01-28T04:24:33.389Z,37.78
2023-01-28T04:25:04.811Z,38.03
2023-01-28T04:25:36.208Z,37.73
2023-01-28T04:26:07.609Z,38.40
2023-01-28T04:26:39.010Z,38.00
2023-01-28T04:27:10.431Z,37.96
2023-01-28T04:27:41.843Z,38.23
2023-01-28T04:28:13.259Z,38.23
2023-01-28T04:28:44.655Z,38.07
2023-01-28T04:29:16.057Z,37.91
2023-01-28T04:29:47.457Z,38.03
2023-01-28T04:30:18.851Z,37.99
2023-01-28T04:30:50.281Z,38.14
2023-01-28T04:31:21.714Z,37.66
2023-01-28T04:31:53.241Z,38.07
2023-01-28T04:32:24.650Z,38.05
2023-01-28T04:32:56.045Z,37.90
2023-01-28T04:33:27.463Z,38.07
2023-01-28T04:33:58.875Z,38.24
2023-01-28T04:34:30.264Z,37.99
2023-01-28T04:35:01.698Z,38.00
2023-01-28T04:35:33.102Z,38.08
2023-01-28T04:36:04.514Z,38.30
2023-01-28T04:36:35.923Z,37.84
2023-01-28T04:37:07.329Z,37.99
2023-01-28T04:37:38.722Z,37.77
2023-01-28T04:38:10.142Z,37.88
2023-01-28T04:38:41.543Z,38.26
2023-01-28T04:39:12.959Z,38.17
2023-01-28T04:39:44.350Z,38.13
2023-01-28T04:40:15.765Z,37.75
2023-01-28T04:40:47.185Z,37.73
2023-01-28T04:41:18.573Z,37.95
2023-01-28T04:41:49.991Z,37.99
2023-01-28T04:42:21.442Z,38.01
2023-01-28T04:42:52.849Z,38.00
2023-01-28T04:43:24.252Z,37.82
2023-01-28T04:43:55.675Z,38.22
2023-01-28T04:44:27.105Z,37.79
2023-01-28T04:44:58.542Z,38.12
2023-01-28T04:45:29.946Z,38.07
2023-01-28T04:46:01.344Z,38.38
2023-01-28T04:46:32.763Z,38.10
2023-01-28T04:47:04.155Z,38.07
2023-01-28T04:47:35.602Z,38.38
2023-01-28T04:48:07.006Z,38.33
2023-01-28T04:48:38.417Z,38.09
2023-01-28T04:49:09.813Z,38.29
2023-01-28T04:49:41.204Z,37.91
2023-01-28T04:50:12.613Z,37.97
2023-01-28T04:50:44.040Z,37.87
2023-01-28T04:51:15.470Z,38.21
2023-01-28T04:51:46.955Z,38.32
2023-01-28T04:52:18.399Z,38.06
2023-01-28T04:52:49.834Z,38.07
2023-01-28T04:53:21.227Z,38.16
2023-01-28T04:53:52.643Z,37.88
2023-01-28T04:54:24.052Z,38.08
2023-01-28T04:54:55.437Z,38.02
2023-01-28T04:55:26.829Z,38.27
2023-01-28T04:55:58.268Z,37.96
2023-01-28T04:56:29.752Z,37.92
2023-01-28T04:57:01.167Z,37.99
2023-01-28T04:57:32.589Z,38.42
2023-01-28T04:58:04.035Z,38.15
2023-01-28T04:58:35.425Z,38.21
2023-01-28T04:59:06.815Z,38.00
2023-01-28T04:59:38.227Z,38.11
2023-01-28T05:00:09.624Z,38.05
2023-01-28T05:00:41.052Z,38.14
2023-01-28T05:01:12.478Z,38.12
2023-01-28T05:01:43.937Z,38.18
2023-01-28T05:02:15.423Z,38.13
2023-01-28T05:02:46.958Z,37.81
2023-01-28T05:03:18.383Z,38.16
2023-01-28T05:03:49.802Z,38.06
2023-01-28T05:04:21.204Z,38.52
2023-01-28T05:04:52.603Z,37.94
2023-01-28T05:05:24.020Z,38.30
2023-01-28T05:05:55.439Z,37.83
2023-01-28T05:06:26.836Z,38.27
2023-01-28T05:06:58.233Z,38.00
2023-01-28T05:07:29.642Z,38.35
2023-01-28T05:08:01.091Z,38.15
2023-01-28T05:08:32.491Z,38.34
2023-01-28T05:09:03.901Z,38.14
2023-01-28T05:09:35.306Z,38.46
2023-01-28T05:10:06.736Z,37.87
2023-01-28T05:10:38.161Z,38.10
2023-01-28T05:11:09.578Z,37.86
2023-01-28T05:11:41.010Z,37.89
2023-01-28T05:12:12.406Z,37.99
2023-01-28T05:12:43.820Z,38.22
2023-01-28T05:13:15.262Z,38.33
2023-01-28T05:13:46.701Z,38.20
2023-01-28T05:14:18.113Z,38.39
2023-01-28T05:14:49.538Z,38.37
2023-01-28T05:15:20.951Z,38.21
2023-01-28T05:15:52.373Z,37.96
2023-01-28T05:16:23.780Z,38.10
2023-01-28T05:16:55.180Z,38.20
2023-01-28T05:17:26.609Z,38.07
2023-01-28T05:17:58.040Z,38.45
2023-01-28T05:18:29.442Z,38.54
2023-01-28T05:19:00.851Z,38.42
2023-01-28T05:19:32.307Z,38.24
2023-01-28T05:20:03.724Z,38.29
2023-01-28T05:20:35.148Z,38.31
2023-01-28T05:21:06.600Z,37.95
2023-01-28T05:21:38.019Z,38.08
2023-01-28T05:22:09.422Z,38.48
2023-01-28T05:22:40.844Z,38.21
2023-01-28T05:23:12.274Z,38.45
2023-01-28T05:23:43.685Z,37.86
2023-01-28T05:24:15.111Z,37.99
2023-01-28T05:24:46.575Z,38.46
2023-01-28T05:25:17.992Z,38.10
2023-01-28T05:25:49.383Z,38.20
2023-01-28T05:26:20.782Z,38.55
2023-01-28T05:26:52.175Z,38.46
2023-01-28T05:27:23.610Z,37.94
2023-01-28T05:27:55.001Z,38.02
2023-01-28T05:28:26.414Z,38.13
2023-01-28T05:28:57.830Z,38.27
2023-01-28T05:29:29.262Z,38.06
2023-01-28T05:30:00.688Z,38.53
2023-01-28T05:30:32.135Z,38.23
2023-01-28T05:31:03.663Z,38.30
2023-01-28T05:31:35.080Z,38.05
2023-01-28T05:32:06.533Z,38.27
2023-01-28T05:32:38.047Z,38.30
2023-01-28T05:33:09.539Z,38.47
2023-01-28T05:33:40.954Z,38.38
2023-01-28T05:34:12.345Z,38.38
2023-01-28T05:34:43.764Z,37.82
2023-01-28T05:35:15.542Z,38.11
2023-01-28T05:35:47.064Z,38.29
2023-01-28T05:36:18.478Z,38.01
2023-01-28T05:36:49.873Z,38.29
2023-01-28T05:37:21.274Z,38.14
2023-01-28T05:37:52.713Z,38.28
2023-01-28T05:38:24.144Z,38.61
2023-01-28T05:38:55.580Z,38.34
2023-01-28T05:39:27.008Z,38.38
2023-01-28T05:39:58.419Z,38.19
2023-01-28T05:40:29.839Z,38.22
2023-01-28T05:41:01.253Z,38.19
2023-01-28T05:41:32.660Z,38.13
2023-01-28T05:42:04.084Z,38.58
2023-01-28T05:42:35.486Z,38.57
2023-01-28T05:43:06.899Z,38.42
2023-01-28T05:43:38.319Z,38.27
2023-01-28T05:44:09.732Z,38.17
2023-01-28T05:44:41.129Z,38.60
2023-01-28T05:45:12.711Z,38.63
2023-01-28T05:45:44.315Z,37.97
2023-01-28T05:46:15.730Z,38.12
2023-01-28T05:46:47.192Z,38.31
2023-01-28T05:47:18.587Z,38.30
2023-01-28T05:47:49.979Z,38.39
2023-01-28T05:48:21.373Z,38.31
2023-01-28T05:48:52.770Z,37.96
2023-01-28T05:49:24.169Z,38.20
2023-01-28T05:49:55.567Z,37.95
2023-01-28T05:50:26.981Z,38.23
2023-01-28T05:50:58.440Z,38.33
2023-01-28T05:51:29.918Z,38.09
2023-01-28T05:52:01.340Z,38.41
2023-01-28T05:52:32.738Z,38.33
2023-01-28T05:53:04.140Z,37.88
2023-01-28T05:53:35.559Z,38.35
2023-01-28T05:54:06.980Z,38.10
2023-01-28T05:54:38.400Z,38.35
2023-01-28T05:55:09.818Z,38.01
2023-01-28T05:55:41.219Z,38.29
2023-01-28T05:56:12.685Z,38.04
2023-01-28T05:56:44.153Z,38.59
2023-01-28T05:57:15.668Z,38.59
2023-01-28T05:57:47.062Z,38.09
2023-01-28T05:58:18.500Z,38.02
2023-01-28T05:58:49.949Z,38.67
2023-01-28T05:59:21.366Z,38.31
2023-01-28T05:59:52.787Z,38.50
2023-01-28T06:00:24.187Z,38.40
2023-01-28T06:00:55.600Z,38.16
2023-01-28T06:01:27.059Z,38.09
2023-01-28T06:01:58.484Z,37.96
2023-01-28T06:02:29.891Z,38.63
2023-01-28T06:03:01.310Z,38.37
2023-01-28T06:03:32.720Z,38.58
2023-01-28T06:04:04.141Z,38.57
2023-01-28T06:04:35.545Z,38.13
2023-01-28T06:05:07.021Z,38.58
2023-01-28T06:05:38.524Z,38.31
2023-01-28T06:06:09.965Z,38.61
2023-01-28T06:06:41.418Z,38.45
2023-01-28T06:07:12.826Z,38.50
2023-01-28T06:07:44.235Z,38.34
2023-01-28T06:08:15.674Z,38.33
2023-01-28T06:08:47.090Z,38.64
2023-01-28T06:09:18.522Z,38.22
2023-01-28T06:09:49.942Z,38.54
2023-01-28T06:10:21.353Z,38.75
2023-01-28T06:10:52.776Z,38.63
2023-01-28T06:11:24.174Z,38.11
2023-01-28T06:11:55.633Z,38.42
2023-01-28T06:12:27.086Z,38.79
2023-01-28T06:12:58.502Z,38.71
2023-01-28T06:13:29.913Z,38.58
2023-01-28T06:14:01.310Z,38.04
2023-01-28T06:14:32.728Z,38.71
2023-01-28T06:15:04.142Z,38.55
2023-01-28T06:15:35.581Z,38.39
2023-01-28T06:16:07.069Z,38.48
2023-01-28T06:16:38.512Z,38.44
2023-01-28T06:17:09.962Z,38.46
2023-01-28T06:17:41.395Z,38.53
2023-01-28T06:18:12.809Z,38.47
2023-01-28T06:18:44.202Z,38.47
2023-01-28T06:19:15.661Z,38.53
2023-01-28T06:19:47.074Z,38.27
2023-01-28T06:20:18.467Z,38.61
2023-01-28T06:20:49.885Z,38.24
2023-01-28T06:21:21.274Z,38.83
2023-01-28T06:21:52.676Z,38.41
2023-01-28T06:22:24.077Z,38.76
2023-01-28T06:22:55.493Z,38.55
2023-01-28T06:23:26.905Z,38.65
2023-01-28T06:23:58.404Z,38.47
2023-01-28T06:24:30.039Z,38.88
2023-01-28T06:25:01.480Z,38.37
2023-01-28T06:25:32.885Z,38.50
2023-01-28T06:26:04.288Z,38.49
2023-01-28T06:26:35.689Z,38.71
2023-01-28T06:27:07.117Z,38.52
2023-01-28T06:27:38.515Z,38.22
2023-01-28T06:28:09.940Z,38.79
2023-01-28T06:28:41.346Z,38.51
2023-01-28T06:29:12.753Z,38.49
2023-01-28T06:29:44.212Z,38.46
2023-01-28T06:30:15.950Z,38.36
2023-01-28T06:30:47.539Z,38.31
2023-01-28T06:31:19.000Z,38.57
2023-01-28T06:31:50.418Z,38.68
2023-01-28T06:32:21.850Z,38.17
2023-01-28T06:32:53.290Z,38.63
2023-01-28T06:33:24.688Z,38.31
2023-01-28T06:33:56.108Z,38.95
2023-01-28T06:34:27.512Z,38.69
2023-01-28T06:34:58.995Z,38.80
2023-01-28T06:35:30.405Z,39.00
2023-01-28T06:36:01.807Z,38.63
2023-01-28T06:36:33.213Z,38.77
2023-01-28T06:37:04.627Z,38.85
2023-01-28T06:37:36.233Z,38.38
2023-01-28T06:38:07.643Z,38.66
2023-01-28T06:38:39.047Z,38.32
2023-01-28T06:39:10.452Z,38.89
2023-01-28T06:39:41.853Z,38.47
2023-01-28T06:40:13.728Z,38.36
2023-01-28T06:40:45.325Z,38.82
2023-01-28T06:41:16.730Z,38.23
2023-01-28T06:41:48.141Z,38.36
2023-01-28T06:42:19.562Z,38.99
2023-01-28T06:42:50.978Z,38.51
2023-01-28T06:43:22.390Z,38.52
2023-01-28T06:43:53.810Z,38.76
2023-01-28T06:44:25.217Z,38.44